sensor_id;sensor_type;location;lat;lon;timestamp;pressure;altitude;pressure_sealevel;temperature;humidity
64711;BME280;51139;45.626;6.850;2023-04-15T00:00:11;80932.63;;;0.86;100.00
64711;BME280;51139;45.626;6.850;2023-04-15T00:02:37;80922.75;;;1.00;100.00
64711;BME280;51139;45.626;6.850;2023-04-15T00:05:03;80918.91;;;1.01;100.00
64711;BME280;51139;45.626;6.850;2023-04-15T00:07:29;80930.03;;;1.33;100.00
64711;BME280;51139;45.626;6.850;2023-04-15T00:09:55;80926.72;;;0.86;100.00
64711;BME280;51139;45.626;6.850;2023-04-15T00:12:25;80931.41;;;0.49;100.00
64711;BME280;51139;45.626;6.850;2023-04-15T00:14:51;80931.59;;;-0.17;100.00
64711;BME280;51139;45.626;6.850;2023-04-15T00:17:16;80930.50;;;-0.30;100.00
64711;BME280;51139;45.626;6.850;2023-04-15T00:19:42;80934.44;;;-0.81;100.00
64711;BME280;51139;45.626;6.850;2023-04-15T00:22:11;80933.06;;;-0.74;100.00
64711;BME280;51139;45.626;6.850;2023-04-15T00:24:38;80933.31;;;-0.20;100.00
64711;BME280;51139;45.626;6.850;2023-04-15T00:27:03;80932.75;;;0.42;100.00
64711;BME280;51139;45.626;6.850;2023-04-15T00:29:29;80925.50;;;0.64;100.00
64711;BME280;51139;45.626;6.850;2023-04-15T00:31:55;80919.94;;;0.60;100.00
64711;BME280;51139;45.626;6.850;2023-04-15T00:34:23;80925.81;;;0.37;100.00
64711;BME280;51139;45.626;6.850;2023-04-15T00:36:49;80922.22;;;0.55;100.00
64711;BME280;51139;45.626;6.850;2023-04-15T00:39:16;80922.69;;;0.31;100.00
64711;BME280;51139;45.626;6.850;2023-04-15T00:41:42;80924.47;;;0.82;100.00
64711;BME280;51139;45.626;6.850;2023-04-15T00:44:08;80921.69;;;1.19;100.00
64711;BME280;51139;45.626;6.850;2023-04-15T00:46:37;80918.72;;;1.23;100.00
64711;BME280;51139;45.626;6.850;2023-04-15T00:49:06;80926.03;;;1.09;100.00
64711;BME280;51139;45.626;6.850;2023-04-15T00:51:34;80919.25;;;1.06;100.00
64711;BME280;51139;45.626;6.850;2023-04-15T00:54:04;80920.28;;;0.87;100.00
64711;BME280;51139;45.626;6.850;2023-04-15T00:56:34;80920.81;;;0.62;100.00
64711;BME280;51139;45.626;6.850;2023-04-15T00:59:00;80925.16;;;0.67;100.00
64711;BME280;51139;45.626;6.850;2023-04-15T01:01:27;80915.59;;;1.16;100.00
64711;BME280;51139;45.626;6.850;2023-04-15T01:03:55;80913.84;;;1.11;100.00
64711;BME280;51139;45.626;6.850;2023-04-15T01:06:20;80912.13;;;0.98;100.00
64711;BME280;51139;45.626;6.850;2023-04-15T01:08:46;80921.69;;;0.88;100.00
64711;BME280;51139;45.626;6.850;2023-04-15T01:11:12;80911.78;;;0.86;100.00
64711;BME280;51139;45.626;6.850;2023-04-15T01:13:38;80919.09;;;0.80;100.00
64711;BME280;51139;45.626;6.850;2023-04-15T01:16:04;80922.38;;;0.89;100.00
64711;BME280;51139;45.626;6.850;2023-04-15T01:18:30;80926.91;;;0.96;100.00
64711;BME280;51139;45.626;6.850;2023-04-15T01:20:56;80918.22;;;1.01;100.00
64711;BME280;51139;45.626;6.850;2023-04-15T01:23:22;80924.25;;;1.27;100.00
64711;BME280;51139;45.626;6.850;2023-04-15T01:25:48;80919.78;;;0.57;100.00
64711;BME280;51139;45.626;6.850;2023-04-15T01:28:14;80931.41;;;1.03;100.00
64711;BME280;51139;45.626;6.850;2023-04-15T01:30:40;80921.88;;;0.90;100.00
64711;BME280;51139;45.626;6.850;2023-04-15T01:33:05;80917.69;;;0.79;100.00
64711;BME280;51139;45.626;6.850;2023-04-15T01:35:31;80924.28;;;0.57;100.00
64711;BME280;51139;45.626;6.850;2023-04-15T01:38:05;80924.13;;;0.86;100.00
64711;BME280;51139;45.626;6.850;2023-04-15T01:40:34;80918.38;;;0.49;100.00
64711;BME280;51139;45.626;6.850;2023-04-15T01:43:00;80920.13;;;0.77;100.00
64711;BME280;51139;45.626;6.850;2023-04-15T01:45:27;80923.94;;;0.76;100.00
64711;BME280;51139;45.626;6.850;2023-04-15T01:47:52;80919.09;;;1.04;100.00
64711;BME280;51139;45.626;6.850;2023-04-15T01:50:18;80919.09;;;1.04;100.00
64711;BME280;51139;45.626;6.850;2023-04-15T01:52:44;80919.25;;;1.13;100.00
64711;BME280;51139;45.626;6.850;2023-04-15T01:55:11;80914.72;;;1.22;100.00
64711;BME280;51139;45.626;6.850;2023-04-15T01:57:36;80917.34;;;1.06;100.00
64711;BME280;51139;45.626;6.850;2023-04-15T02:00:02;80905.31;;;1.26;100.00
64711;BME280;51139;45.626;6.850;2023-04-15T02:02:28;80907.28;;;1.02;100.00
64711;BME280;51139;45.626;6.850;2023-04-15T02:04:53;80912.59;;;1.28;100.00
64711;BME280;51139;45.626;6.850;2023-04-15T02:07:18;80921.34;;;0.76;100.00
64711;BME280;51139;45.626;6.850;2023-04-15T02:09:44;80918.75;;;0.99;100.00
64711;BME280;51139;45.626;6.850;2023-04-15T02:12:11;80916.47;;;0.96;100.00
64711;BME280;51139;45.626;6.850;2023-04-15T02:14:37;80923.09;;;1.05;100.00
64711;BME280;51139;45.626;6.850;2023-04-15T02:17:02;80912.13;;;1.14;100.00
64711;BME280;51139;45.626;6.850;2023-04-15T02:19:32;80916.25;;;1.40;100.00
64711;BME280;51139;45.626;6.850;2023-04-15T02:21:58;80910.16;;;1.38;100.00
64711;BME280;51139;45.626;6.850;2023-04-15T02:24:24;80912.09;;;1.29;100.00
64711;BME280;51139;45.626;6.850;2023-04-15T02:26:49;80918.56;;;1.05;100.00
64711;BME280;51139;45.626;6.850;2023-04-15T02:29:15;80916.09;;;1.23;100.00
64711;BME280;51139;45.626;6.850;2023-04-15T02:31:40;80911.59;;;1.00;100.00
64711;BME280;51139;45.626;6.850;2023-04-15T02:34:06;80920.63;;;0.76;100.00
64711;BME280;51139;45.626;6.850;2023-04-15T02:36:32;80917.69;;;0.95;100.00
64711;BME280;51139;45.626;6.850;2023-04-15T02:38:58;80917.16;;;1.20;100.00
64711;BME280;51139;45.626;6.850;2023-04-15T02:41:25;80916.78;;;1.31;100.00
64711;BME280;51139;45.626;6.850;2023-04-15T02:43:52;80917.97;;;1.53;100.00
64711;BME280;51139;45.626;6.850;2023-04-15T02:46:18;80915.94;;;1.13;100.00
64711;BME280;51139;45.626;6.850;2023-04-15T02:48:43;80909.16;;;1.02;100.00
64711;BME280;51139;45.626;6.850;2023-04-15T02:51:12;80905.50;;;1.28;100.00
64711;BME280;51139;45.626;6.850;2023-04-15T02:53:38;80921.16;;;1.36;100.00
64711;BME280;51139;45.626;6.850;2023-04-15T02:56:04;80917.97;;;1.53;100.00
64711;BME280;51139;45.626;6.850;2023-04-15T02:58:30;80918.00;;;1.30;100.00
64711;BME280;51139;45.626;6.850;2023-04-15T03:00:56;80918.38;;;1.34;100.00
64711;BME280;51139;45.626;6.850;2023-04-15T03:03:21;80913.19;;;0.95;100.00
64711;BME280;51139;45.626;6.850;2023-04-15T03:05:47;80909.66;;;0.23;100.00
64711;BME280;51139;45.626;6.850;2023-04-15T03:08:12;80912.94;;;0.23;100.00
64711;BME280;51139;45.626;6.850;2023-04-15T03:10:39;80911.59;;;0.61;100.00
64711;BME280;51139;45.626;6.850;2023-04-15T03:13:04;80921.34;;;0.68;100.00
64711;BME280;51139;45.626;6.850;2023-04-15T03:15:31;80921.63;;;0.34;100.00
64711;BME280;51139;45.626;6.850;2023-04-15T03:17:56;80917.50;;;0.38;100.00
64711;BME280;51139;45.626;6.850;2023-04-15T03:20:22;80918.72;;;0.68;100.00
64711;BME280;51139;45.626;6.850;2023-04-15T03:22:48;80911.94;;;-0.26;100.00
64711;BME280;51139;45.626;6.850;2023-04-15T03:25:14;80920.91;;;0.02;100.00
64711;BME280;51139;45.626;6.850;2023-04-15T03:27:40;80916.94;;;0.24;100.00
64711;BME280;51139;45.626;6.850;2023-04-15T03:30:06;80919.91;;;0.21;100.00
64711;BME280;51139;45.626;6.850;2023-04-15T03:32:32;80913.56;;;-0.07;100.00
64711;BME280;51139;45.626;6.850;2023-04-15T03:34:57;80922.00;;;0.30;100.00
64711;BME280;51139;45.626;6.850;2023-04-15T03:37:22;80909.75;;;-0.06;100.00
64711;BME280;51139;45.626;6.850;2023-04-15T03:39:48;80912.22;;;0.15;100.00
64711;BME280;51139;45.626;6.850;2023-04-15T03:42:13;80917.91;;;-0.10;100.00
64711;BME280;51139;45.626;6.850;2023-04-15T03:44:39;80914.31;;;0.24;100.00
64711;BME280;51139;45.626;6.850;2023-04-15T03:47:04;80913.66;;;0.24;100.00
64711;BME280;51139;45.626;6.850;2023-04-15T03:49:29;80908.75;;;0.05;100.00
64711;BME280;51139;45.626;6.850;2023-04-15T03:51:55;80913.09;;;0.02;100.00
64711;BME280;51139;45.626;6.850;2023-04-15T03:54:20;80911.41;;;0.36;100.00
64711;BME280;51139;45.626;6.850;2023-04-15T10:43:54;81037.41;;;-0.20;100.00
64711;BME280;51139;45.626;6.850;2023-04-15T10:46:23;81030.34;;;-0.11;100.00
64711;BME280;51139;45.626;6.850;2023-04-15T10:48:51;81026.50;;;0.19;100.00
64711;BME280;51139;45.626;6.850;2023-04-15T10:51:26;81024.56;;;0.11;100.00
64711;BME280;51139;45.626;6.850;2023-04-15T10:53:58;81024.63;;;0.35;100.00
64711;BME280;51139;45.626;6.850;2023-04-15T10:56:24;81034.22;;;0.48;100.00
64711;BME280;51139;45.626;6.850;2023-04-15T10:58:49;81032.59;;;0.89;100.00
64711;BME280;51139;45.626;6.850;2023-04-15T11:01:15;81032.72;;;0.68;100.00
64711;BME280;51139;45.626;6.850;2023-04-15T11:03:42;81038.06;;;0.02;100.00
64711;BME280;51139;45.626;6.850;2023-04-15T11:06:08;81038.56;;;0.01;100.00
64711;BME280;51139;45.626;6.850;2023-04-15T11:08:57;81041.38;;;0.47;100.00
64711;BME280;51139;45.626;6.850;2023-04-15T11:14:28;81051.75;;;0.39;100.00
64711;BME280;51139;45.626;6.850;2023-04-15T11:16:54;81042.09;;;0.55;100.00
64711;BME280;51139;45.626;6.850;2023-04-15T11:19:20;81052.44;;;0.92;100.00
64711;BME280;51139;45.626;6.850;2023-04-15T11:21:45;81051.72;;;0.32;100.00
64711;BME280;51139;45.626;6.850;2023-04-15T11:24:11;81055.81;;;-0.25;100.00
64711;BME280;51139;45.626;6.850;2023-04-15T11:26:47;81050.91;;;0.00;100.00
64711;BME280;51139;45.626;6.850;2023-04-15T11:29:16;81050.31;;;-0.14;100.00
64711;BME280;51139;45.626;6.850;2023-04-15T11:31:46;81046.69;;;-0.11;100.00
64711;BME280;51139;45.626;6.850;2023-04-15T11:34:21;81047.78;;;0.46;100.00
64711;BME280;51139;45.626;6.850;2023-04-15T11:36:48;81053.41;;;0.73;100.00
64711;BME280;51139;45.626;6.850;2023-04-15T11:39:13;81060.19;;;0.17;100.00
64711;BME280;51139;45.626;6.850;2023-04-15T11:41:40;81057.03;;;0.10;100.00
64711;BME280;51139;45.626;6.850;2023-04-15T11:44:17;81065.50;;;0.03;100.00
64711;BME280;51139;45.626;6.850;2023-04-15T11:46:42;81052.81;;;-0.01;100.00
64711;BME280;51139;45.626;6.850;2023-04-15T11:49:08;81066.72;;;0.10;100.00
64711;BME280;51139;45.626;6.850;2023-04-15T11:51:33;81070.91;;;0.13;100.00
64711;BME280;51139;45.626;6.850;2023-04-15T11:53:59;81068.56;;;-0.35;100.00
64711;BME280;51139;45.626;6.850;2023-04-15T11:56:25;81075.06;;;0.45;100.00
64711;BME280;51139;45.626;6.850;2023-04-15T11:58:53;81075.44;;;0.49;100.00
64711;BME280;51139;45.626;6.850;2023-04-15T12:01:32;81075.34;;;0.78;100.00
64711;BME280;51139;45.626;6.850;2023-04-15T12:03:59;81074.50;;;0.99;100.00
64711;BME280;51139;45.626;6.850;2023-04-15T12:06:31;81078.59;;;1.62;100.00
64711;BME280;51139;45.626;6.850;2023-04-15T12:09:06;81084.09;;;1.04;100.00
64711;BME280;51139;45.626;6.850;2023-04-15T12:11:44;81085.94;;;0.80;100.00
64711;BME280;51139;45.626;6.850;2023-04-15T12:14:24;81089.13;;;1.02;100.00
64711;BME280;51139;45.626;6.850;2023-04-15T12:16:52;81092.66;;;1.36;100.00
64711;BME280;51139;45.626;6.850;2023-04-15T12:19:39;81099.25;;;0.53;100.00
64711;BME280;51139;45.626;6.850;2023-04-15T12:24:36;81091.72;;;1.02;100.00
64711;BME280;51139;45.626;6.850;2023-04-15T12:27:06;81102.81;;;0.79;100.00
64711;BME280;51139;45.626;6.850;2023-04-15T12:29:33;81106.44;;;0.84;100.00
64711;BME280;51139;45.626;6.850;2023-04-15T12:32:09;81107.47;;;1.33;100.00
64711;BME280;51139;45.626;6.850;2023-04-15T12:34:38;81102.59;;;1.37;100.00
64711;BME280;51139;45.626;6.850;2023-04-15T12:37:05;81099.81;;;1.74;100.00
64711;BME280;51139;45.626;6.850;2023-04-15T12:39:34;81103.81;;;1.67;100.00
64711;BME280;51139;45.626;6.850;2023-04-15T12:42:00;81103.97;;;2.00;100.00
64711;BME280;51139;45.626;6.850;2023-04-15T12:44:26;81111.63;;;1.75;100.00
64711;BME280;51139;45.626;6.850;2023-04-15T12:46:53;81108.16;;;2.11;100.00
64711;BME280;51139;45.626;6.850;2023-04-15T12:49:20;81111.31;;;2.02;100.00
64711;BME280;51139;45.626;6.850;2023-04-15T12:51:48;81120.16;;;1.68;100.00
64711;BME280;51139;45.626;6.850;2023-04-15T12:54:13;81123.31;;;1.82;100.00
64711;BME280;51139;45.626;6.850;2023-04-15T12:56:38;81126.97;;;1.79;100.00
64711;BME280;51139;45.626;6.850;2023-04-15T12:59:04;81129.22;;;1.43;100.00
64711;BME280;51139;45.626;6.850;2023-04-15T13:01:29;81131.50;;;1.86;100.00
64711;BME280;51139;45.626;6.850;2023-04-15T13:03:55;81137.69;;;1.21;100.00
64711;BME280;51139;45.626;6.850;2023-04-15T13:06:20;81138.31;;;1.97;100.00
64711;BME280;51139;45.626;6.850;2023-04-15T13:08:45;81131.69;;;1.72;100.00
64711;BME280;51139;45.626;6.850;2023-04-15T13:11:11;81137.59;;;1.81;100.00
64711;BME280;51139;45.626;6.850;2023-04-15T13:13:36;81136.19;;;1.95;100.00
64711;BME280;51139;45.626;6.850;2023-04-15T13:16:02;81145.94;;;2.02;100.00
64711;BME280;51139;45.626;6.850;2023-04-15T13:18:27;81135.00;;;2.04;100.00
64711;BME280;51139;45.626;6.850;2023-04-15T13:20:55;81145.38;;;2.58;100.00
64711;BME280;51139;45.626;6.850;2023-04-15T13:23:20;81143.88;;;1.93;100.00
64711;BME280;51139;45.626;6.850;2023-04-15T13:25:46;81151.88;;;2.26;100.00
64711;BME280;51139;45.626;6.850;2023-04-15T13:28:11;81141.75;;;2.38;100.00
64711;BME280;51139;45.626;6.850;2023-04-15T13:30:37;81146.44;;;2.47;100.00
64711;BME280;51139;45.626;6.850;2023-04-15T13:33:03;81152.75;;;1.74;100.00
64711;BME280;51139;45.626;6.850;2023-04-15T13:35:29;81144.72;;;3.06;100.00
64711;BME280;51139;45.626;6.850;2023-04-15T13:37:54;81151.16;;;3.13;100.00
64711;BME280;51139;45.626;6.850;2023-04-15T13:40:20;81155.84;;;2.58;100.00
64711;BME280;51139;45.626;6.850;2023-04-15T13:42:45;81152.72;;;1.67;100.00
64711;BME280;51139;45.626;6.850;2023-04-15T13:45:11;81153.81;;;1.95;100.00
64711;BME280;51139;45.626;6.850;2023-04-15T13:47:36;81157.94;;;1.67;100.00
64711;BME280;51139;45.626;6.850;2023-04-15T13:50:02;81163.19;;;2.06;100.00
64711;BME280;51139;45.626;6.850;2023-04-15T13:52:27;81165.28;;;2.46;100.00
64711;BME280;51139;45.626;6.850;2023-04-15T13:54:53;81161.09;;;2.12;100.00
64711;BME280;51139;45.626;6.850;2023-04-15T13:57:20;81163.91;;;2.06;100.00
64711;BME280;51139;45.626;6.850;2023-04-15T13:59:45;81173.81;;;2.46;100.00
64711;BME280;51139;45.626;6.850;2023-04-15T14:02:10;81164.59;;;2.22;100.00
64711;BME280;51139;45.626;6.850;2023-04-15T14:04:36;81162.84;;;1.70;100.00
64711;BME280;51139;45.626;6.850;2023-04-15T14:07:02;81168.78;;;2.02;100.00
64711;BME280;51139;45.626;6.850;2023-04-15T14:09:28;81167.69;;;1.58;100.00
64711;BME280;51139;45.626;6.850;2023-04-15T14:11:53;81178.38;;;1.24;100.00
64711;BME280;51139;45.626;6.850;2023-04-15T14:14:19;81165.94;;;1.69;100.00
64711;BME280;51139;45.626;6.850;2023-04-15T14:16:44;81168.50;;;1.38;100.00
64711;BME280;51139;45.626;6.850;2023-04-15T14:19:10;81170.31;;;1.74;100.00
64711;BME280;51139;45.626;6.850;2023-04-15T14:21:35;81172.41;;;2.07;100.00
64711;BME280;51139;45.626;6.850;2023-04-15T14:24:01;81179.03;;;2.46;100.00
64711;BME280;51139;45.626;6.850;2023-04-15T14:26:26;81165.28;;;2.15;100.00
64711;BME280;51139;45.626;6.850;2023-04-15T14:28:51;81166.84;;;2.02;100.00
64711;BME280;51139;45.626;6.850;2023-04-15T14:31:18;81171.72;;;1.98;100.00
64711;BME280;51139;45.626;6.850;2023-04-15T14:33:43;81182.50;;;1.71;100.00
64711;BME280;51139;45.626;6.850;2023-04-15T14:36:08;81184.59;;;1.65;100.00
64711;BME280;51139;45.626;6.850;2023-04-15T14:38:34;81183.22;;;1.80;100.00
64711;BME280;51139;45.626;6.850;2023-04-15T14:41:03;81191.75;;;2.27;100.00
64711;BME280;51139;45.626;6.850;2023-04-15T14:43:28;81195.22;;;2.53;100.00
64711;BME280;51139;45.626;6.850;2023-04-15T14:45:54;81196.47;;;1.89;100.00
64711;BME280;51139;45.626;6.850;2023-04-15T14:48:19;81202.38;;;1.98;100.00
64711;BME280;51139;45.626;6.850;2023-04-15T14:50:45;81199.41;;;2.01;100.00
64711;BME280;51139;45.626;6.850;2023-04-15T14:53:10;81211.81;;;2.24;100.00
64711;BME280;51139;45.626;6.850;2023-04-15T14:55:38;81204.66;;;2.17;100.00
64711;BME280;51139;45.626;6.850;2023-04-15T14:58:03;81210.22;;;2.29;100.00
64711;BME280;51139;45.626;6.850;2023-04-15T15:00:28;81209.28;;;1.64;100.00
64711;BME280;51139;45.626;6.850;2023-04-15T15:02:54;81207.53;;;1.67;100.00
64711;BME280;51139;45.626;6.850;2023-04-15T15:05:20;81214.63;;;1.35;100.00
64711;BME280;51139;45.626;6.850;2023-04-15T15:07:45;81211.06;;;1.85;100.00
64711;BME280;51139;45.626;6.850;2023-04-15T15:10:12;81218.94;;;2.24;100.00
64711;BME280;51139;45.626;6.850;2023-04-15T15:12:37;81218.41;;;2.33;100.00
64711;BME280;51139;45.626;6.850;2023-04-15T15:15:03;81221.19;;;1.96;100.00
64711;BME280;51139;45.626;6.850;2023-04-15T15:17:29;81221.38;;;2.06;100.00
64711;BME280;51139;45.626;6.850;2023-04-15T15:19:55;81222.09;;;2.38;100.00
64711;BME280;51139;45.626;6.850;2023-04-15T15:22:21;81220.53;;;2.35;100.00
64711;BME280;51139;45.626;6.850;2023-04-15T15:24:46;81222.06;;;2.07;100.00
64711;BME280;51139;45.626;6.850;2023-04-15T15:27:12;81228.59;;;1.61;100.00
64711;BME280;51139;45.626;6.850;2023-04-15T15:29:37;81231.50;;;1.42;100.00
64711;BME280;51139;45.626;6.850;2023-04-15T15:32:03;81227.28;;;1.23;100.00
64711;BME280;51139;45.626;6.850;2023-04-15T15:34:28;81232.50;;;1.99;100.00
64711;BME280;51139;45.626;6.850;2023-04-15T15:36:54;81234.78;;;1.95;100.00
64711;BME280;51139;45.626;6.850;2023-04-15T15:39:22;81239.31;;;2.33;100.00
64711;BME280;51139;45.626;6.850;2023-04-15T15:41:47;81232.91;;;2.42;100.00
64711;BME280;51139;45.626;6.850;2023-04-15T15:44:13;81234.13;;;2.25;100.00
64711;BME280;51139;45.626;6.850;2023-04-15T15:46:38;81234.75;;;1.79;100.00
64711;BME280;51139;45.626;6.850;2023-04-15T15:49:04;81239.97;;;1.87;100.00
64711;BME280;51139;45.626;6.850;2023-04-15T15:51:29;81240.84;;;1.82;100.00
64711;BME280;51139;45.626;6.850;2023-04-15T15:53:55;81243.59;;;1.68;100.00
64711;BME280;51139;45.626;6.850;2023-04-15T15:56:20;81239.13;;;2.00;100.00
64711;BME280;51139;45.626;6.850;2023-04-15T15:58:45;81244.00;;;1.96;100.00
64711;BME280;51139;45.626;6.850;2023-04-15T16:01:11;81245.72;;;1.93;100.00
64711;BME280;51139;45.626;6.850;2023-04-15T16:03:36;81240.53;;;2.01;100.00
64711;BME280;51139;45.626;6.850;2023-04-15T16:06:03;81240.72;;;1.35;100.00
64711;BME280;51139;45.626;6.850;2023-04-15T16:08:28;81250.91;;;1.70;100.00
64711;BME280;51139;45.626;6.850;2023-04-15T16:10:54;81254.50;;;1.51;100.00
64711;BME280;51139;45.626;6.850;2023-04-15T16:13:20;81252.59;;;1.52;100.00
64711;BME280;51139;45.626;6.850;2023-04-15T16:15:45;81258.97;;;1.87;100.00
64711;BME280;51139;45.626;6.850;2023-04-15T16:18:10;81257.78;;;2.12;100.00
64711;BME280;51139;45.626;6.850;2023-04-15T16:20:36;81260.75;;;1.48;100.00
64711;BME280;51139;45.626;6.850;2023-04-15T16:23:10;81266.38;;;1.68;100.00
64711;BME280;51139;45.626;6.850;2023-04-15T16:25:36;81271.22;;;1.56;100.00
64711;BME280;51139;45.626;6.850;2023-04-15T16:28:01;81277.03;;;1.25;100.00
64711;BME280;51139;45.626;6.850;2023-04-15T16:30:27;81272.78;;;1.51;100.00
64711;BME280;51139;45.626;6.850;2023-04-15T16:32:53;81282.78;;;1.31;100.00
64711;BME280;51139;45.626;6.850;2023-04-15T16:35:18;81284.38;;;1.35;100.00
64711;BME280;51139;45.626;6.850;2023-04-15T16:37:44;81282.59;;;1.29;100.00
64711;BME280;51139;45.626;6.850;2023-04-15T16:40:10;81292.47;;;1.60;100.00
64711;BME280;51139;45.626;6.850;2023-04-15T16:42:35;81290.81;;;0.25;100.00
64711;BME280;51139;45.626;6.850;2023-04-15T16:45:01;81293.69;;;0.56;100.00
64711;BME280;51139;45.626;6.850;2023-04-15T16:47:26;81304.56;;;0.76;100.00
64711;BME280;51139;45.626;6.850;2023-04-15T16:49:51;81300.41;;;0.81;100.00
64711;BME280;51139;45.626;6.850;2023-04-15T16:52:17;81303.03;;;0.81;100.00
64711;BME280;51139;45.626;6.850;2023-04-15T16:54:42;81304.50;;;0.68;100.00
64711;BME280;51139;45.626;6.850;2023-04-15T16:57:08;81310.00;;;0.57;100.00
64711;BME280;51139;45.626;6.850;2023-04-15T16:59:33;81312.38;;;0.26;100.00
64711;BME280;51139;45.626;6.850;2023-04-15T17:01:59;81326.22;;;0.21;100.00
64711;BME280;51139;45.626;6.850;2023-04-15T17:04:24;81322.59;;;0.03;100.00
64711;BME280;51139;45.626;6.850;2023-04-15T17:06:51;81327.94;;;0.61;100.00
64711;BME280;51139;45.626;6.850;2023-04-15T17:09:16;81330.31;;;0.80;100.00
64711;BME280;51139;45.626;6.850;2023-04-15T17:11:42;81336.53;;;0.98;100.00
64711;BME280;51139;45.626;6.850;2023-04-15T17:14:08;81338.44;;;0.97;100.00
64711;BME280;51139;45.626;6.850;2023-04-15T17:16:34;81334.28;;;1.02;100.00
64711;BME280;51139;45.626;6.850;2023-04-15T17:19:01;81341.53;;;0.67;100.00
64711;BME280;51139;45.626;6.850;2023-04-15T17:21:27;81348.72;;;1.03;100.00
64711;BME280;51139;45.626;6.850;2023-04-15T17:23:52;81348.06;;;0.81;100.00
64711;BME280;51139;45.626;6.850;2023-04-15T17:26:18;81350.97;;;0.78;100.00
64711;BME280;51139;45.626;6.850;2023-04-15T17:28:44;81356.09;;;1.12;100.00
64711;BME280;51139;45.626;6.850;2023-04-15T17:31:10;81356.00;;;0.97;100.00
64711;BME280;51139;45.626;6.850;2023-04-15T17:33:37;81363.91;;;0.83;100.00
64711;BME280;51139;45.626;6.850;2023-04-15T17:36:02;81362.00;;;0.63;100.00
64711;BME280;51139;45.626;6.850;2023-04-15T17:38:28;81361.31;;;0.62;100.00
64711;BME280;51139;45.626;6.850;2023-04-15T17:40:54;81363.47;;;0.50;100.00
64711;BME280;51139;45.626;6.850;2023-04-15T17:43:19;81378.09;;;0.53;100.00
64711;BME280;51139;45.626;6.850;2023-04-15T17:45:45;81366.31;;;0.39;100.00
64711;BME280;51139;45.626;6.850;2023-04-15T17:48:12;81380.84;;;0.13;100.00
64711;BME280;51139;45.626;6.850;2023-04-15T17:50:37;81381.81;;;0.02;100.00
64711;BME280;51139;45.626;6.850;2023-04-15T17:53:03;81384.13;;;0.27;100.00
64711;BME280;51139;45.626;6.850;2023-04-15T17:55:31;81391.84;;;0.19;100.00
64711;BME280;51139;45.626;6.850;2023-04-15T17:57:56;81390.44;;;0.18;100.00
64711;BME280;51139;45.626;6.850;2023-04-15T18:00:22;81396.81;;;0.31;100.00
64711;BME280;51139;45.626;6.850;2023-04-15T18:02:47;81393.00;;;0.10;100.00
64711;BME280;51139;45.626;6.850;2023-04-15T18:05:12;81396.88;;;0.17;100.00
64711;BME280;51139;45.626;6.850;2023-04-15T18:07:38;81405.31;;;0.10;100.00
64711;BME280;51139;45.626;6.850;2023-04-15T18:10:05;81405.38;;;0.52;100.00
64711;BME280;51139;45.626;6.850;2023-04-15T18:12:31;81404.13;;;0.32;100.00
64711;BME280;51139;45.626;6.850;2023-04-15T18:14:56;81410.47;;;0.23;100.00
64711;BME280;51139;45.626;6.850;2023-04-15T18:17:22;81402.38;;;-0.21;100.00
64711;BME280;51139;45.626;6.850;2023-04-15T18:19:47;81409.56;;;-0.14;100.00
64711;BME280;51139;45.626;6.850;2023-04-15T18:22:13;81413.31;;;0.12;100.00
64711;BME280;51139;45.626;6.850;2023-04-15T18:24:38;81423.00;;;-0.23;100.00
64711;BME280;51139;45.626;6.850;2023-04-15T18:27:03;81414.50;;;0.46;100.00
64711;BME280;51139;45.626;6.850;2023-04-15T18:29:29;81419.81;;;0.40;100.00
64711;BME280;51139;45.626;6.850;2023-04-15T18:31:55;81422.50;;;-0.22;100.00
64711;BME280;51139;45.626;6.850;2023-04-15T18:34:22;81426.91;;;0.18;100.00
64711;BME280;51139;45.626;6.850;2023-04-15T18:36:48;81430.06;;;-0.10;100.00
64711;BME280;51139;45.626;6.850;2023-04-15T18:39:14;81438.91;;;-0.27;100.00
64711;BME280;51139;45.626;6.850;2023-04-15T18:41:40;81438.59;;;-0.10;100.00
64711;BME280;51139;45.626;6.850;2023-04-15T18:44:06;81440.94;;;-0.47;100.00
64711;BME280;51139;45.626;6.850;2023-04-15T18:46:31;81434.66;;;0.10;100.00
64711;BME280;51139;45.626;6.850;2023-04-15T18:48:57;81449.50;;;-0.11;100.00
64711;BME280;51139;45.626;6.850;2023-04-15T18:51:22;81444.50;;;0.04;100.00
64711;BME280;51139;45.626;6.850;2023-04-15T18:53:48;81447.81;;;-0.09;100.00
64711;BME280;51139;45.626;6.850;2023-04-15T18:56:13;81462.81;;;-0.02;100.00
64711;BME280;51139;45.626;6.850;2023-04-15T18:58:39;81453.13;;;0.34;100.00
64711;BME280;51139;45.626;6.850;2023-04-15T19:01:04;81473.06;;;-0.17;100.00
64711;BME280;51139;45.626;6.850;2023-04-15T19:03:29;81473.34;;;-0.21;100.00
64711;BME280;51139;45.626;6.850;2023-04-15T19:05:55;81471.06;;;-0.11;100.00
64711;BME280;51139;45.626;6.850;2023-04-15T19:08:21;81477.28;;;-0.27;100.00
64711;BME280;51139;45.626;6.850;2023-04-15T19:10:46;81476.06;;;-0.67;100.00
64711;BME280;51139;45.626;6.850;2023-04-15T19:13:11;81473.84;;;-0.09;100.00
64711;BME280;51139;45.626;6.850;2023-04-15T19:15:37;81471.75;;;-0.24;100.00
64711;BME280;51139;45.626;6.850;2023-04-15T19:18:02;81478.97;;;-0.43;100.00
64711;BME280;51139;45.626;6.850;2023-04-15T19:20:34;81484.91;;;0.32;100.00
64711;BME280;51139;45.626;6.850;2023-04-15T19:23:00;81486.53;;;-1.65;100.00
64711;BME280;51139;45.626;6.850;2023-04-15T19:25:25;81486.84;;;-0.76;100.00
64711;BME280;51139;45.626;6.850;2023-04-15T19:27:50;81489.69;;;-0.34;100.00
64711;BME280;51139;45.626;6.850;2023-04-15T19:30:16;81495.38;;;-0.22;100.00
64711;BME280;51139;45.626;6.850;2023-04-15T19:32:41;81494.09;;;-0.28;100.00
64711;BME280;51139;45.626;6.850;2023-04-15T19:35:07;81494.38;;;-0.32;100.00
64711;BME280;51139;45.626;6.850;2023-04-15T19:37:32;81499.47;;;-0.53;100.00
64711;BME280;51139;45.626;6.850;2023-04-15T19:39:58;81508.28;;;-0.56;100.00
64711;BME280;51139;45.626;6.850;2023-04-15T19:42:23;81510.19;;;-0.17;100.00
64711;BME280;51139;45.626;6.850;2023-04-15T19:44:49;81509.09;;;-0.08;100.00